Mill Creek, West Virginia
Current Conditions -  °F | °C
As of 7:51 AM on Wednesday 26 Nov 2014 (Local Time) from KEKN Reporting Station
Light Snow Light Snow  
Wind Chill:   Ceiling: 1400
Heat Index:   Visibility: 2.5mi
Dew Point:   Wind: 0mph
Humidity: 100%   Direction: NA
Pressure: 30.02"   Gusts: NA
Location:  38.73°N, 79.97°W
Report Text: KEKN 261251Z AUTO 00000KT 2 1/2SM -SN BR OVC014 01/01 A3002 RMK AO2 RAE33SNB33 SLP187 P0006 T00110011 TSNO
Loading
Personal Weather Stations






























Interactive Weather Map New forecast layout! Learn more

10-Day Weather Forecast

Advertisements
Track Severe Weather on mobile